createdAt,value
2023-03-15T00:00:29.322Z,9.719471
2023-03-15T00:01:29.304Z,9.719340
2023-03-15T00:02:29.324Z,9.719278
2023-03-15T00:03:29.311Z,9.719271
2023-03-15T00:04:29.289Z,9.719299
2023-03-15T00:05:29.315Z,9.719401
2023-03-15T00:06:29.258Z,9.719231
2023-03-15T00:07:29.252Z,9.719309
2023-03-15T00:08:29.245Z,9.719194
2023-03-15T00:09:29.288Z,9.719273
2023-03-15T00:10:29.221Z,9.719287
2023-03-15T00:11:29.209Z,9.719248
2023-03-15T00:12:29.203Z,9.719275
2023-03-15T00:13:29.216Z,9.719327
2023-03-15T00:14:30.203Z,9.719393
2023-03-15T00:15:29.231Z,9.719391
2023-03-15T00:16:29.178Z,9.719352
2023-03-15T00:17:29.158Z,9.719183
2023-03-15T00:18:29.140Z,9.719241
2023-03-15T00:19:29.147Z,9.719102
2023-03-15T00:20:29.154Z,9.719160
2023-03-15T00:21:29.121Z,9.719253
2023-03-15T00:22:29.101Z,9.719201
2023-03-15T00:23:29.111Z,9.719201
2023-03-15T00:24:29.113Z,9.719201
2023-03-15T00:25:29.089Z,9.719201
2023-03-15T00:26:29.104Z,9.719201
2023-03-15T00:27:29.062Z,9.719201
2023-03-15T00:28:29.048Z,9.719201
2023-03-15T00:29:29.033Z,9.719201
2023-03-15T00:30:29.041Z,9.719201
2023-03-15T00:31:29.077Z,9.719201
2023-03-15T00:32:29.065Z,9.719201
2023-03-15T00:33:29.021Z,9.719360
2023-03-15T00:34:28.992Z,9.719400
2023-03-15T00:35:28.972Z,9.719398
2023-03-15T00:36:28.959Z,9.719398
2023-03-15T00:37:28.978Z,9.719398
2023-03-15T00:38:28.978Z,9.719398
2023-03-15T00:39:28.943Z,9.719292
2023-03-15T00:40:28.939Z,9.719332
2023-03-15T00:41:28.912Z,9.719358
2023-03-15T00:42:28.910Z,9.719466
2023-03-15T00:43:29.009Z,9.719466
2023-03-15T00:44:28.882Z,9.719376
2023-03-15T00:45:28.910Z,9.719507
2023-03-15T00:46:28.896Z,9.718846
2023-03-15T00:47:28.845Z,9.718995
2023-03-15T00:48:28.832Z,9.718688
2023-03-15T00:49:28.851Z,9.719060
2023-03-15T00:50:28.828Z,9.719125
2023-03-15T00:51:28.803Z,9.719070
2023-03-15T00:52:28.855Z,9.719151
2023-03-15T00:53:28.796Z,9.719208
2023-03-15T00:54:28.869Z,9.719419
2023-03-15T00:55:28.776Z,9.719421
2023-03-15T00:56:28.774Z,9.719287
2023-03-15T00:57:28.751Z,9.719252
2023-03-15T00:58:28.753Z,9.719318
2023-03-15T00:59:28.744Z,9.719052
2023-03-15T01:00:28.750Z,9.718966
2023-03-15T01:01:28.735Z,9.718956
2023-03-15T01:02:28.738Z,9.718645
2023-03-15T01:03:28.708Z,9.718406
2023-03-15T01:04:28.768Z,9.718438
2023-03-15T01:05:28.670Z,9.718326
2023-03-15T01:06:28.716Z,9.718283
2023-03-15T01:07:28.658Z,9.718305
2023-03-15T01:08:28.693Z,9.718223
2023-03-15T01:09:28.668Z,9.718356
2023-03-15T01:10:28.639Z,9.718850
2023-03-15T01:11:28.620Z,9.719091
2023-03-15T01:12:28.633Z,9.719162
2023-03-15T01:13:28.602Z,9.719232
2023-03-15T01:14:28.605Z,9.719344
2023-03-15T01:15:28.657Z,9.719339
2023-03-15T01:16:28.642Z,9.719316
2023-03-15T01:17:28.606Z,9.719344
2023-03-15T01:18:28.548Z,9.719346
2023-03-15T01:19:28.554Z,9.719282
2023-03-15T01:20:28.529Z,9.719186
2023-03-15T01:21:28.513Z,9.719122
2023-03-15T01:22:28.506Z,9.719182
2023-03-15T01:23:28.514Z,9.719140
2023-03-15T01:24:28.540Z,9.719117
2023-03-15T01:25:28.483Z,9.719206
2023-03-15T01:26:28.606Z,9.719271
2023-03-15T01:27:28.473Z,9.719310
2023-03-15T01:28:28.459Z,9.719264
2023-03-15T01:29:28.444Z,9.719280
2023-03-15T01:30:28.496Z,9.719240
2023-03-15T01:31:28.513Z,9.719286
2023-03-15T01:32:28.443Z,9.719270
2023-03-15T01:33:28.419Z,9.719298
2023-03-15T01:34:28.396Z,9.719214
2023-03-15T01:35:28.439Z,9.719178
2023-03-15T01:36:28.396Z,9.719224
2023-03-15T01:37:28.366Z,9.719187
2023-03-15T01:38:28.389Z,9.719201
2023-03-15T01:39:28.376Z,9.719180
2023-03-15T01:40:28.368Z,9.719261
2023-03-15T01:41:31.741Z,9.719230
2023-03-15T01:43:00.225Z,9.719307
2023-03-15T01:43:28.335Z,9.719330
2023-03-15T01:44:28.313Z,9.719296
2023-03-15T01:45:28.311Z,9.719272
2023-03-15T01:46:28.345Z,9.719227
2023-03-15T01:47:28.279Z,9.719242
2023-03-15T01:48:28.268Z,9.719241
2023-03-15T01:49:28.257Z,9.719252
2023-03-15T01:50:28.306Z,9.719244
2023-03-15T01:51:28.237Z,9.719221
2023-03-15T01:52:28.220Z,9.719296
2023-03-15T01:53:28.223Z,9.719206
2023-03-15T01:54:28.202Z,9.719193
2023-03-15T01:55:28.212Z,9.719254
2023-03-15T01:56:28.243Z,9.719266
2023-03-15T01:57:28.208Z,9.719297
2023-03-15T01:58:28.161Z,9.719374
2023-03-15T01:59:28.161Z,9.719471
2023-03-15T02:00:28.165Z,9.719547
2023-03-15T02:01:28.145Z,9.719583
2023-03-15T02:02:28.200Z,9.719491
2023-03-15T02:03:28.221Z,9.719357
2023-03-15T02:04:28.107Z,9.719178
2023-03-15T02:05:28.107Z,9.719224
2023-03-15T02:06:28.096Z,9.719197
2023-03-15T02:07:28.084Z,9.719197
2023-03-15T02:08:28.087Z,9.719197
2023-03-15T02:09:28.065Z,9.719197
2023-03-15T02:10:28.073Z,9.719197
2023-03-15T02:11:28.044Z,9.719197
2023-03-15T02:12:28.034Z,9.719197
2023-03-15T02:13:28.025Z,9.719197
2023-03-15T02:14:28.032Z,9.719197
2023-03-15T02:15:28.033Z,9.719197
2023-03-15T02:16:28.099Z,9.719197
2023-03-15T02:17:27.989Z,9.719197
2023-03-15T02:18:27.987Z,9.719197
2023-03-15T02:19:27.991Z,9.719197
2023-03-15T02:20:28.044Z,9.719197
2023-03-15T02:21:27.942Z,9.719197
2023-03-15T02:22:27.931Z,9.719197
2023-03-15T02:23:27.926Z,9.719197
2023-03-15T02:24:27.937Z,9.719197
2023-03-15T02:25:27.900Z,9.719197
2023-03-15T02:26:27.909Z,9.719197
2023-03-15T02:27:28.019Z,9.719197
2023-03-15T02:28:27.894Z,9.719197
2023-03-15T02:29:27.871Z,9.719197
2023-03-15T02:30:27.864Z,9.719197
2023-03-15T02:31:28.104Z,9.719197
2023-03-15T02:32:27.899Z,9.719197
2023-03-15T02:33:27.835Z,9.719197
2023-03-15T02:34:27.818Z,9.719197
2023-03-15T02:35:27.843Z,9.719197
2023-03-15T02:36:27.815Z,9.719197
2023-03-15T02:37:27.810Z,9.719197
2023-03-15T02:38:27.789Z,9.719257
2023-03-15T02:39:27.776Z,9.719356
2023-03-15T02:40:27.774Z,9.719322
2023-03-15T02:41:27.779Z,9.719332
2023-03-15T02:42:27.754Z,9.719334
2023-03-15T02:43:27.737Z,9.719334
2023-03-15T02:44:27.742Z,9.719518
2023-03-15T02:45:27.725Z,9.719476
2023-03-15T02:46:27.705Z,9.719520
2023-03-15T02:47:27.716Z,9.719520
2023-03-15T02:48:27.688Z,9.719520
2023-03-15T02:49:27.678Z,9.719520
2023-03-15T02:50:27.674Z,9.719520
2023-03-15T02:51:27.675Z,9.719520
2023-03-15T02:52:27.660Z,9.719520
2023-03-15T02:53:27.667Z,9.719520
2023-03-15T02:54:27.620Z,9.719520
2023-03-15T02:55:27.624Z,9.719520
2023-03-15T02:56:27.611Z,9.719520
2023-03-15T02:57:27.597Z,9.719520
2023-03-15T02:58:27.642Z,9.719149
2023-03-15T02:59:27.594Z,9.720196
2023-03-15T03:00:27.571Z,9.720379
2023-03-15T03:01:27.624Z,9.719711
2023-03-15T03:02:27.685Z,9.719411
2023-03-15T03:03:27.546Z,9.719260
2023-03-15T03:04:27.529Z,9.718902
2023-03-15T03:05:27.519Z,9.718972
2023-03-15T03:06:27.518Z,9.718632
2023-03-15T03:07:27.533Z,9.718730
2023-03-15T03:08:27.493Z,9.718743
2023-03-15T03:09:27.497Z,9.718827
2023-03-15T03:10:27.504Z,9.718794
2023-03-15T03:11:27.461Z,9.718780
2023-03-15T03:12:27.460Z,9.718780
2023-03-15T03:13:27.449Z,9.718881
2023-03-15T03:14:27.487Z,9.718816
2023-03-15T03:15:27.434Z,9.718773
2023-03-15T03:16:27.473Z,9.718825
2023-03-15T03:17:27.419Z,9.718738
2023-03-15T03:18:27.402Z,9.718641
2023-03-15T03:19:27.418Z,9.718537
2023-03-15T03:20:27.397Z,9.718545
2023-03-15T03:21:27.371Z,9.718511
2023-03-15T03:22:27.358Z,9.718655
2023-03-15T03:23:27.341Z,9.718425
2023-03-15T03:24:27.389Z,9.718561
2023-03-15T03:25:27.362Z,9.718203
2023-03-15T03:26:27.400Z,9.718427
2023-03-15T03:27:27.306Z,9.718664
2023-03-15T03:28:27.291Z,9.718664
2023-03-15T03:29:27.303Z,9.718664
2023-03-15T03:30:27.337Z,9.718664
2023-03-15T03:31:27.259Z,9.718664
2023-03-15T03:32:27.357Z,9.718664
2023-03-15T03:33:27.249Z,9.718664
2023-03-15T03:34:27.238Z,9.718664
2023-03-15T03:35:27.227Z,9.718664
2023-03-15T03:36:27.241Z,9.718664
2023-03-15T03:37:27.205Z,9.718664
2023-03-15T03:38:27.187Z,9.718664
2023-03-15T03:39:27.181Z,9.718664
2023-03-15T03:40:27.177Z,9.718664
2023-03-15T03:41:27.237Z,9.718664
2023-03-15T03:42:27.156Z,9.718664
2023-03-15T03:43:27.144Z,9.718664
2023-03-15T03:44:27.130Z,9.718664
2023-03-15T03:45:27.143Z,9.718664
2023-03-15T03:46:27.167Z,9.718664
2023-03-15T03:47:27.098Z,9.718852
2023-03-15T03:48:27.120Z,9.718852
2023-03-15T03:49:27.142Z,9.718852
2023-03-15T03:50:27.087Z,9.718852
2023-03-15T03:51:27.079Z,9.719188
2023-03-15T03:52:27.043Z,9.719034
2023-03-15T03:53:27.088Z,9.719078
2023-03-15T03:54:28.043Z,9.718987
2023-03-15T03:55:27.030Z,9.718946
2023-03-15T03:56:27.011Z,9.719097
2023-03-15T03:57:27.009Z,9.719086
2023-03-15T03:58:26.998Z,9.719125
2023-03-15T03:59:26.990Z,9.719176
2023-03-15T04:00:27.003Z,9.719294
2023-03-15T04:01:26.969Z,9.719390
2023-03-15T04:02:26.962Z,9.719378
2023-03-15T04:03:26.972Z,9.719427
2023-03-15T04:04:26.988Z,9.719431
2023-03-15T04:05:26.936Z,9.719350
2023-03-15T04:06:26.909Z,9.719319
2023-03-15T04:07:26.900Z,9.719284
2023-03-15T04:08:26.930Z,9.719296
2023-03-15T04:09:26.890Z,9.719273
2023-03-15T04:10:26.944Z,9.719126
2023-03-15T04:11:26.915Z,9.719177
2023-03-15T04:12:26.980Z,9.719261
2023-03-15T04:13:26.857Z,9.719272
2023-03-15T04:14:26.867Z,9.719258
2023-03-15T04:15:26.849Z,9.719140
2023-03-15T04:16:26.867Z,9.719128
2023-03-15T04:17:26.821Z,9.719149
2023-03-15T04:18:26.830Z,9.719166
2023-03-15T04:19:26.798Z,9.719186
2023-03-15T04:20:26.773Z,9.719181
2023-03-15T04:21:26.813Z,9.719265
2023-03-15T04:22:26.765Z,9.719291
2023-03-15T04:23:26.756Z,9.719319
2023-03-15T04:24:26.754Z,9.719232
2023-03-15T04:25:26.728Z,9.719272
2023-03-15T04:26:26.732Z,9.719197
2023-03-15T04:27:26.729Z,9.719249
2023-03-15T04:28:26.702Z,9.719375
2023-03-15T04:29:26.702Z,9.719309
2023-03-15T04:30:26.718Z,9.719280
2023-03-15T04:31:26.733Z,9.719221
2023-03-15T04:32:26.707Z,9.719265
2023-03-15T04:33:26.666Z,9.719141
2023-03-15T04:34:26.686Z,9.719197
2023-03-15T04:35:26.650Z,9.719394
2023-03-15T04:36:26.700Z,9.719627
2023-03-15T04:37:26.647Z,9.719417
2023-03-15T04:38:26.700Z,9.719335
2023-03-15T04:39:26.618Z,9.719211
2023-03-15T04:40:26.659Z,9.719320
2023-03-15T04:41:26.610Z,9.719288
2023-03-15T04:42:26.564Z,9.719420
2023-03-15T04:43:26.573Z,9.719813
2023-03-15T04:44:26.570Z,9.719583
2023-03-15T04:45:26.548Z,9.719501
2023-03-15T04:46:26.566Z,9.719471
2023-03-15T04:47:26.534Z,9.719316
2023-03-15T04:48:26.510Z,9.719350
2023-03-15T04:49:26.530Z,9.718957
2023-03-15T04:50:26.552Z,9.719159
2023-03-15T04:51:26.490Z,9.719237
2023-03-15T04:52:26.471Z,9.719121
2023-03-15T04:53:26.460Z,9.719172
2023-03-15T04:54:27.462Z,9.719183
2023-03-15T04:55:26.528Z,9.719072
2023-03-15T04:56:26.440Z,9.719091
2023-03-15T04:57:26.428Z,9.719154
2023-03-15T04:58:26.415Z,9.719185
2023-03-15T04:59:26.407Z,9.719156
2023-03-15T05:00:26.432Z,9.719163
2023-03-15T05:01:26.406Z,9.719207
2023-03-15T05:02:26.434Z,9.719181
2023-03-15T05:03:26.375Z,9.719141
2023-03-15T05:04:26.421Z,9.719181
2023-03-15T05:05:26.365Z,9.719192
2023-03-15T05:06:26.401Z,9.719197
2023-03-15T05:07:26.336Z,9.719156
2023-03-15T05:08:26.322Z,9.719178
2023-03-15T05:09:26.305Z,9.719229
2023-03-15T05:10:26.345Z,9.719251
2023-03-15T05:11:26.314Z,9.719273
2023-03-15T05:12:26.285Z,9.719183
2023-03-15T05:13:26.278Z,9.719171
2023-03-15T05:14:26.270Z,9.719175
2023-03-15T05:15:26.310Z,9.719176
2023-03-15T05:16:26.341Z,9.719202
2023-03-15T05:17:26.291Z,9.719246
2023-03-15T05:18:26.228Z,9.719269
2023-03-15T05:19:26.226Z,9.719250
2023-03-15T05:20:26.199Z,9.719186
2023-03-15T05:21:26.195Z,9.719289
2023-03-15T05:22:26.198Z,9.719233
2023-03-15T05:23:26.195Z,9.719272
2023-03-15T05:24:26.188Z,9.719334
2023-03-15T05:25:26.161Z,9.719282
2023-03-15T05:26:26.149Z,9.719270
2023-03-15T05:27:26.144Z,9.719237
2023-03-15T05:28:26.149Z,9.719284
2023-03-15T05:29:26.145Z,9.719276
2023-03-15T05:30:26.127Z,9.719224
2023-03-15T05:31:26.152Z,9.719255
2023-03-15T05:32:26.128Z,9.719339
2023-03-15T05:33:26.097Z,9.719289
2023-03-15T05:34:26.091Z,9.719316
2023-03-15T05:35:26.088Z,9.719234
2023-03-15T05:36:26.060Z,9.719280
2023-03-15T05:37:26.052Z,9.719313
2023-03-15T05:38:26.094Z,9.719294
2023-03-15T05:39:26.034Z,9.719257
2023-03-15T05:40:26.067Z,9.719189
2023-03-15T05:41:26.001Z,9.719245
2023-03-15T05:42:26.046Z,9.719251
2023-03-15T05:43:25.985Z,9.719168
2023-03-15T05:44:25.993Z,9.719185
2023-03-15T05:45:25.992Z,9.719211
2023-03-15T05:46:25.969Z,9.719279
2023-03-15T05:47:25.936Z,9.719251
2023-03-15T05:48:25.920Z,9.719245
2023-03-15T05:49:25.915Z,9.719408
2023-03-15T05:50:25.922Z,9.719452
2023-03-15T05:51:25.928Z,9.719506
2023-03-15T05:52:25.913Z,9.719470
2023-03-15T05:53:25.890Z,9.719468
2023-03-15T05:54:25.891Z,9.719456
2023-03-15T05:55:25.865Z,9.719398
2023-03-15T05:56:25.894Z,9.719279
2023-03-15T05:57:25.836Z,9.719219
2023-03-15T05:58:25.833Z,9.719357
2023-03-15T05:59:25.826Z,9.719359
2023-03-15T06:00:25.885Z,9.719297
2023-03-15T06:01:25.812Z,9.719048
2023-03-15T06:02:25.793Z,9.719201
2023-03-15T06:03:25.818Z,9.719226
2023-03-15T06:04:25.820Z,9.719164
2023-03-15T06:05:25.779Z,9.719280
2023-03-15T06:06:26.767Z,9.719283
2023-03-15T06:07:25.766Z,9.719064
2023-03-15T06:08:25.722Z,9.719256
2023-03-15T06:09:25.728Z,9.719448
2023-03-15T06:10:25.715Z,9.719519
2023-03-15T06:11:25.713Z,9.719423
2023-03-15T06:12:25.709Z,9.719269
2023-03-15T06:13:25.698Z,9.719290
2023-03-15T06:14:25.669Z,9.719378
2023-03-15T06:15:25.671Z,9.719551
2023-03-15T06:16:25.665Z,9.719572
2023-03-15T06:17:25.648Z,9.719341
2023-03-15T06:18:25.672Z,9.719285
2023-03-15T06:19:25.626Z,9.719331
2023-03-15T06:20:25.608Z,9.719333
2023-03-15T06:21:25.606Z,9.719248
2023-03-15T06:22:25.601Z,9.719434
2023-03-15T06:23:25.589Z,9.719451
2023-03-15T06:24:25.596Z,9.719538
2023-03-15T06:25:25.561Z,9.719339
2023-03-15T06:26:25.562Z,9.719339
2023-03-15T06:27:25.563Z,9.719183
2023-03-15T06:28:25.545Z,9.719455
2023-03-15T06:29:25.556Z,9.719438
2023-03-15T06:30:25.570Z,9.719312
2023-03-15T06:31:25.510Z,9.719277
2023-03-15T06:32:25.665Z,9.719201
2023-03-15T06:33:25.482Z,9.719184
2023-03-15T06:34:25.500Z,9.719316
2023-03-15T06:35:25.464Z,9.719331
2023-03-15T06:36:25.457Z,9.719227
2023-03-15T06:37:34.502Z,9.719159
2023-03-15T06:38:26.464Z,9.719290
2023-03-15T06:39:25.434Z,9.719246
2023-03-15T06:40:25.413Z,9.719072
2023-03-15T06:41:25.431Z,9.719026
2023-03-15T06:42:25.450Z,9.719150
2023-03-15T06:43:25.399Z,9.719192
2023-03-15T06:44:25.388Z,9.719246
2023-03-15T06:45:25.396Z,9.719230
2023-03-15T06:46:25.433Z,9.719205
2023-03-15T06:47:25.405Z,9.719180
2023-03-15T06:48:25.347Z,9.719194
2023-03-15T06:49:25.344Z,9.719083
2023-03-15T06:50:27.628Z,9.719159
2023-03-15T06:51:25.333Z,9.719147
2023-03-15T06:52:25.314Z,9.719187
2023-03-15T06:53:25.296Z,9.719114
2023-03-15T06:54:25.315Z,9.719156
2023-03-15T06:55:25.289Z,9.719140
2023-03-15T06:56:25.287Z,9.719154
2023-03-15T06:57:25.262Z,9.719125
2023-03-15T06:58:25.310Z,9.719121
2023-03-15T06:59:25.241Z,9.719058
2023-03-15T07:00:25.246Z,9.719161
2023-03-15T07:01:25.283Z,9.719161
2023-03-15T07:02:25.308Z,9.719188
2023-03-15T07:03:25.200Z,9.719075
2023-03-15T07:04:25.231Z,9.719099
2023-03-15T07:05:25.197Z,9.719157
2023-03-15T07:06:25.178Z,9.719051
2023-03-15T07:07:25.160Z,9.718981
2023-03-15T07:08:25.195Z,9.719012
2023-03-15T07:09:25.161Z,9.718940
2023-03-15T07:10:25.163Z,9.719030
2023-03-15T07:11:25.133Z,9.719179
2023-03-15T07:12:25.109Z,9.719135
2023-03-15T07:13:25.120Z,9.718945
2023-03-15T07:14:25.119Z,9.718972
2023-03-15T07:15:25.084Z,9.719019
2023-03-15T07:16:25.084Z,9.719163
2023-03-15T07:17:25.141Z,9.718925
2023-03-15T07:18:25.046Z,9.719265
2023-03-15T07:19:25.099Z,9.719144
2023-03-15T07:20:25.039Z,9.719298
2023-03-15T07:21:26.041Z,9.719276
2023-03-15T07:22:25.022Z,9.719391
2023-03-15T07:23:25.013Z,9.719372
2023-03-15T07:24:25.009Z,9.719235
2023-03-15T07:25:25.004Z,9.719269
2023-03-15T07:26:24.999Z,9.719452
2023-03-15T07:27:24.969Z,9.719367
2023-03-15T07:28:24.976Z,9.719236
2023-03-15T07:29:24.940Z,9.719509
2023-03-15T07:30:24.941Z,9.719443
2023-03-15T07:31:24.957Z,9.718887
2023-03-15T07:32:24.975Z,9.719353
2023-03-15T07:33:25.992Z,9.719213
2023-03-15T07:34:24.920Z,9.719314
2023-03-15T07:35:24.927Z,9.719456
2023-03-15T07:36:24.911Z,9.719390
2023-03-15T07:37:24.875Z,9.719415
2023-03-15T07:38:24.860Z,9.719261
2023-03-15T07:39:24.851Z,9.719217
2023-03-15T07:40:24.852Z,9.719219
2023-03-15T07:41:24.830Z,9.719218
2023-03-15T07:42:56.730Z,9.719140
2023-03-15T07:43:24.801Z,9.719191
2023-03-15T07:44:24.811Z,9.719098
2023-03-15T07:45:24.791Z,9.719093
2023-03-15T07:46:24.851Z,9.719162
2023-03-15T07:47:24.765Z,9.719106
2023-03-15T07:48:24.758Z,9.719157
2023-03-15T07:49:24.762Z,9.719198
2023-03-15T07:50:24.760Z,9.719257
2023-03-15T07:51:24.726Z,9.719292
2023-03-15T07:52:24.709Z,9.719137
2023-03-15T07:53:24.706Z,9.719161
2023-03-15T07:54:24.685Z,9.719159
2023-03-15T07:55:24.725Z,9.719168
2023-03-15T07:56:24.684Z,9.719069
2023-03-15T07:57:24.681Z,9.719080
2023-03-15T07:58:24.679Z,9.719165
2023-03-15T07:59:24.643Z,9.719221
2023-03-15T08:00:24.633Z,9.719332
2023-03-15T08:01:24.664Z,9.719335
2023-03-15T08:02:24.626Z,9.719290
2023-03-15T08:03:24.779Z,9.719277
2023-03-15T08:04:24.592Z,9.719329
2023-03-15T08:05:25.775Z,9.719339
2023-03-15T08:06:24.575Z,9.719429
2023-03-15T08:07:24.565Z,9.719440
2023-03-15T08:08:24.556Z,9.719279
2023-03-15T08:09:24.575Z,9.719071
2023-03-15T08:10:24.564Z,9.719320
2023-03-15T08:11:24.532Z,9.719327
2023-03-15T08:12:24.520Z,9.719332
2023-03-15T08:13:24.526Z,9.719453
2023-03-15T08:14:24.502Z,9.719329
2023-03-15T08:15:24.500Z,9.719260
2023-03-15T08:16:24.539Z,9.719298
2023-03-15T08:17:24.471Z,9.719237
2023-03-15T08:18:24.487Z,9.719306
2023-03-15T08:19:24.444Z,9.719234
2023-03-15T08:20:24.490Z,9.719388
2023-03-15T08:21:24.430Z,9.719386
2023-03-15T08:22:24.429Z,9.719438
2023-03-15T08:23:24.419Z,9.719484
2023-03-15T08:24:24.541Z,9.719398
2023-03-15T08:25:24.408Z,9.719310
2023-03-15T08:26:24.386Z,9.719435
2023-03-15T08:27:24.383Z,9.719422
2023-03-15T08:28:24.399Z,9.719399
2023-03-15T08:29:24.351Z,9.719202
2023-03-15T08:30:24.412Z,9.719228
2023-03-15T08:31:24.352Z,9.719212
2023-03-15T08:32:24.425Z,9.719193
2023-03-15T08:33:24.405Z,9.719296
2023-03-15T08:34:24.310Z,9.719252
2023-03-15T08:35:24.341Z,9.719306
2023-03-15T08:36:24.336Z,9.719384
2023-03-15T08:37:24.274Z,9.719356
2023-03-15T08:38:24.322Z,9.719272
2023-03-15T08:39:24.294Z,9.719439
2023-03-15T08:40:24.244Z,9.719480
2023-03-15T08:41:24.228Z,9.719372
2023-03-15T08:42:24.219Z,9.719408
2023-03-15T08:43:24.245Z,9.719339
2023-03-15T08:44:24.303Z,9.719413
2023-03-15T08:45:24.214Z,9.719331
2023-03-15T08:46:24.222Z,9.719318
2023-03-15T08:47:24.200Z,9.719378
2023-03-15T08:48:24.172Z,9.719517
2023-03-15T08:49:24.173Z,9.719421
2023-03-15T08:50:24.149Z,9.719488
2023-03-15T08:51:24.136Z,9.719476
2023-03-15T08:52:24.139Z,9.719310
2023-03-15T08:53:24.118Z,9.719149
2023-03-15T08:54:24.125Z,9.719394
2023-03-15T08:55:25.686Z,9.719414
2023-03-15T08:56:24.081Z,9.719473
2023-03-15T08:57:24.093Z,9.719524
2023-03-15T08:58:24.089Z,9.719332
2023-03-15T08:59:31.778Z,9.719168
2023-03-15T09:00:26.121Z,9.719330
2023-03-15T09:01:24.024Z,9.719328
2023-03-15T09:02:24.090Z,9.719179
2023-03-15T09:03:24.077Z,9.719483
2023-03-15T09:04:24.031Z,9.719501
2023-03-15T09:05:24.022Z,9.719444
2023-03-15T09:06:23.984Z,9.719595
2023-03-15T09:07:24.067Z,9.719307
2023-03-15T09:08:23.982Z,9.719191
2023-03-15T09:09:23.971Z,9.719177
2023-03-15T09:10:23.968Z,9.719268
2023-03-15T09:11:23.942Z,9.719442
2023-03-15T09:12:23.935Z,9.719282
2023-03-15T09:13:23.942Z,9.718941
2023-03-15T09:14:23.905Z,9.719426
2023-03-15T09:15:23.922Z,9.719426
2023-03-15T09:16:23.929Z,9.719426
2023-03-15T09:17:23.890Z,9.719426
2023-03-15T09:18:23.916Z,9.719426
2023-03-15T09:19:23.864Z,9.719426
2023-03-15T09:20:23.859Z,9.719426
2023-03-15T09:21:23.834Z,9.719426
2023-03-15T09:22:38.175Z,9.719426
2023-03-15T09:23:25.859Z,9.719426
2023-03-15T09:24:23.805Z,9.719426
2023-03-15T09:25:23.876Z,9.719850
2023-03-15T09:26:23.791Z,9.719613
2023-03-15T09:27:23.783Z,9.719913
2023-03-15T09:28:23.765Z,9.719413
2023-03-15T09:29:23.761Z,9.719476
2023-03-15T09:30:23.770Z,9.719303
2023-03-15T09:31:23.821Z,9.719210
2023-03-15T09:32:23.786Z,9.719197
2023-03-15T09:33:23.749Z,9.719194
2023-03-15T09:34:25.346Z,9.719328
2023-03-15T09:35:23.715Z,9.719464
2023-03-15T09:36:23.698Z,9.719370
2023-03-15T09:37:23.684Z,9.719351
2023-03-15T09:38:23.692Z,9.719419
2023-03-15T09:39:23.709Z,9.719263
2023-03-15T09:40:23.826Z,9.719292
2023-03-15T09:41:23.650Z,9.719160
2023-03-15T09:42:23.652Z,9.719197
2023-03-15T09:43:23.646Z,9.719213
2023-03-15T09:44:23.642Z,9.719194
2023-03-15T09:45:23.634Z,9.719132
2023-03-15T09:46:23.671Z,9.719125
2023-03-15T09:47:23.609Z,9.719237
2023-03-15T09:48:23.627Z,9.719175
2023-03-15T09:49:23.586Z,9.719150
2023-03-15T09:50:23.618Z,9.719084
2023-03-15T09:51:23.610Z,9.718983
2023-03-15T09:52:23.545Z,9.719092
2023-03-15T09:53:23.572Z,9.719020
2023-03-15T09:54:23.618Z,9.718992
2023-03-15T09:55:23.535Z,9.719021
2023-03-15T09:56:23.508Z,9.719116
2023-03-15T09:57:23.516Z,9.719150
2023-03-15T09:58:23.504Z,9.719131
2023-03-15T09:59:23.475Z,9.718951
2023-03-15T10:00:23.553Z,9.719038
2023-03-15T10:01:23.578Z,9.719138
2023-03-15T10:02:23.460Z,9.719090
2023-03-15T10:03:23.531Z,9.719118
2023-03-15T10:04:23.438Z,9.719173
2023-03-15T10:05:23.453Z,9.719197
2023-03-15T10:06:23.414Z,9.719228
2023-03-15T10:07:23.396Z,9.719195
2023-03-15T10:08:23.393Z,9.719182
2023-03-15T10:09:23.385Z,9.719208
2023-03-15T10:10:23.420Z,9.719078
2023-03-15T10:11:23.355Z,9.719035
2023-03-15T10:12:23.342Z,9.719070
2023-03-15T10:13:23.329Z,9.719082
2023-03-15T10:14:23.323Z,9.719136
2023-03-15T10:15:23.368Z,9.719229
2023-03-15T10:16:23.372Z,9.719213
2023-03-15T10:17:23.327Z,9.719209
2023-03-15T10:18:23.319Z,9.719200
2023-03-15T10:19:23.285Z,9.719119
2023-03-15T10:20:23.302Z,9.719155
2023-03-15T10:21:23.292Z,9.719119
2023-03-15T10:22:23.251Z,9.719106
2023-03-15T10:23:23.266Z,9.719036
2023-03-15T10:24:23.239Z,9.719112
2023-03-15T10:25:23.254Z,9.719121
2023-03-15T10:26:23.216Z,9.719105
2023-03-15T10:27:23.197Z,9.719118
2023-03-15T10:28:23.212Z,9.719137
2023-03-15T10:29:23.200Z,9.719232
2023-03-15T10:30:23.174Z,9.719237
2023-03-15T10:31:36.504Z,9.719118
2023-03-15T10:32:25.163Z,9.719270
2023-03-15T10:33:23.165Z,9.719503
2023-03-15T10:34:23.170Z,9.719338
2023-03-15T10:35:23.124Z,9.719177
2023-03-15T10:36:23.207Z,9.719201
2023-03-15T10:37:23.132Z,9.719362
2023-03-15T10:38:23.091Z,9.719329
2023-03-15T10:39:23.108Z,9.719256
2023-03-15T10:40:23.068Z,9.719414
2023-03-15T10:41:28.738Z,9.719398
2023-03-15T10:42:25.130Z,9.718952
2023-03-15T10:43:23.058Z,9.719195
2023-03-15T10:44:23.027Z,9.719174
2023-03-15T10:45:23.021Z,9.719057
2023-03-15T10:46:23.072Z,9.719131
2023-03-15T10:47:24.576Z,9.719533
2023-03-15T10:48:23.996Z,9.719317
2023-03-15T10:49:23.004Z,9.719244
2023-03-15T10:50:22.973Z,9.719317
2023-03-15T10:51:22.958Z,9.719216
2023-03-15T10:52:22.965Z,9.719009
2023-03-15T10:53:22.954Z,9.719009
2023-03-15T10:54:22.956Z,9.719111
2023-03-15T10:55:22.912Z,9.719207
2023-03-15T10:56:22.905Z,9.718759
2023-03-15T10:57:22.914Z,9.719412
2023-03-15T10:58:24.824Z,9.719147
2023-03-15T10:59:22.870Z,9.719117
2023-03-15T11:00:22.861Z,9.719083
2023-03-15T11:01:22.892Z,9.719318
2023-03-15T11:02:22.866Z,9.719049
2023-03-15T11:03:22.832Z,9.719217
2023-03-15T11:04:22.820Z,9.719212
2023-03-15T11:05:22.811Z,9.719025
2023-03-15T11:06:22.892Z,9.719126
2023-03-15T11:07:22.784Z,9.719275
2023-03-15T11:08:22.778Z,9.719260
2023-03-15T11:09:22.783Z,9.719390
2023-03-15T11:10:22.758Z,9.719258
2023-03-15T11:11:22.774Z,9.719027
2023-03-15T11:12:22.757Z,9.719217
2023-03-15T11:13:22.730Z,9.719143
2023-03-15T11:14:22.717Z,9.719254
2023-03-15T11:15:22.699Z,9.719214
2023-03-15T11:16:22.721Z,9.719327
2023-03-15T11:17:22.732Z,9.719296
2023-03-15T11:18:22.676Z,9.719230
2023-03-15T11:19:22.688Z,9.719111
2023-03-15T11:20:22.657Z,9.719060
2023-03-15T11:21:22.642Z,9.719146
2023-03-15T11:22:22.637Z,9.719140
2023-03-15T11:23:22.660Z,9.719172
2023-03-15T11:24:22.653Z,9.719176
2023-03-15T11:25:24.939Z,9.719106
2023-03-15T11:26:32.986Z,9.719159
2023-03-15T11:27:24.618Z,9.719205
2023-03-15T11:28:22.596Z,9.719309
2023-03-15T11:29:22.567Z,9.719242
2023-03-15T11:30:22.563Z,9.719256
2023-03-15T11:31:23.587Z,9.719242
2023-03-15T11:32:22.558Z,9.719123
2023-03-15T11:33:22.531Z,9.719232
2023-03-15T11:34:22.520Z,9.719170
2023-03-15T11:35:22.548Z,9.719138
2023-03-15T11:36:22.586Z,9.719131
2023-03-15T11:37:22.518Z,9.719126
2023-03-15T11:38:22.480Z,9.719118
2023-03-15T11:39:22.461Z,9.719013
2023-03-15T11:40:22.487Z,9.719049
2023-03-15T11:41:22.446Z,9.719107
2023-03-15T11:42:22.473Z,9.719164
2023-03-15T11:43:22.428Z,9.719200
2023-03-15T11:44:22.485Z,9.719444